sensor_id;sensor_type;location;lat;lon;timestamp;pressure;altitude;pressure_sealevel;temperature;humidity
59443;BME280;45247;47.466;19.004;2024-03-17T00:00:38;100118.47;;;10.41;100.00
59443;BME280;45247;47.466;19.004;2024-03-17T00:03:05;100119.31;;;10.41;100.00
59443;BME280;45247;47.466;19.004;2024-03-17T00:05:35;100124.75;;;10.38;100.00
59443;BME280;45247;47.466;19.004;2024-03-17T00:08:03;100129.44;;;10.33;100.00
59443;BME280;45247;47.466;19.004;2024-03-17T00:10:30;100121.53;;;10.33;100.00
59443;BME280;45247;47.466;19.004;2024-03-17T00:12:56;100120.13;;;10.26;100.00
59443;BME280;45247;47.466;19.004;2024-03-17T00:15:24;100113.91;;;10.27;100.00
59443;BME280;45247;47.466;19.004;2024-03-17T00:17:50;100110.06;;;10.17;100.00
59443;BME280;45247;47.466;19.004;2024-03-17T00:20:17;100110.41;;;10.11;100.00
59443;BME280;45247;47.466;19.004;2024-03-17T00:22:46;100113.91;;;10.11;100.00
59443;BME280;45247;47.466;19.004;2024-03-17T00:25:15;100110.56;;;10.08;100.00
59443;BME280;45247;47.466;19.004;2024-03-17T00:27:42;100115.75;;;10.09;100.00
59443;BME280;45247;47.466;19.004;2024-03-17T00:30:11;100115.84;;;10.08;100.00
59443;BME280;45247;47.466;19.004;2024-03-17T00:32:39;100112.41;;;10.06;100.00
59443;BME280;45247;47.466;19.004;2024-03-17T00:35:06;100117.94;;;10.01;100.00
59443;BME280;45247;47.466;19.004;2024-03-17T00:37:34;100117.69;;;10.06;100.00
59443;BME280;45247;47.466;19.004;2024-03-17T00:40:00;100126.53;;;10.04;100.00
59443;BME280;45247;47.466;19.004;2024-03-17T00:42:29;100120.69;;;9.99;100.00
59443;BME280;45247;47.466;19.004;2024-03-17T00:44:57;100121.78;;;9.95;100.00
59443;BME280;45247;47.466;19.004;2024-03-17T00:47:25;100116.66;;;9.92;100.00
59443;BME280;45247;47.466;19.004;2024-03-17T00:49:53;100122.25;;;9.86;100.00
59443;BME280;45247;47.466;19.004;2024-03-17T00:52:19;100118.00;;;9.84;100.00
59443;BME280;45247;47.466;19.004;2024-03-17T00:54:46;100115.75;;;9.76;100.00
59443;BME280;45247;47.466;19.004;2024-03-17T00:57:13;100119.66;;;9.69;100.00
59443;BME280;45247;47.466;19.004;2024-03-17T00:59:42;100125.25;;;9.63;100.00
59443;BME280;45247;47.466;19.004;2024-03-17T01:02:10;100133.25;;;9.61;100.00
59443;BME280;45247;47.466;19.004;2024-03-17T01:04:39;100132.38;;;9.61;100.00
59443;BME280;45247;47.466;19.004;2024-03-17T01:07:05;100126.09;;;9.63;100.00
59443;BME280;45247;47.466;19.004;2024-03-17T01:09:32;100119.38;;;9.58;100.00
59443;BME280;45247;47.466;19.004;2024-03-17T01:11:58;100123.09;;;9.53;100.00
59443;BME280;45247;47.466;19.004;2024-03-17T01:14:26;100120.94;;;9.44;100.00
59443;BME280;45247;47.466;19.004;2024-03-17T01:16:54;100115.81;;;9.41;100.00
59443;BME280;45247;47.466;19.004;2024-03-17T01:19:21;100123.72;;;9.41;100.00
59443;BME280;45247;47.466;19.004;2024-03-17T01:21:48;100112.41;;;9.39;100.00
59443;BME280;45247;47.466;19.004;2024-03-17T01:24:16;100115.81;;;9.41;100.00
59443;BME280;45247;47.466;19.004;2024-03-17T01:26:42;100122.97;;;9.39;100.00
59443;BME280;45247;47.466;19.004;2024-03-17T01:29:10;100113.25;;;9.40;100.00
59443;BME280;45247;47.466;19.004;2024-03-17T01:31:36;100127.91;;;9.45;100.00
59443;BME280;45247;47.466;19.004;2024-03-17T01:34:04;100114.13;;;9.40;100.00
59443;BME280;45247;47.466;19.004;2024-03-17T01:36:32;100116.13;;;9.35;100.00
59443;BME280;45247;47.466;19.004;2024-03-17T01:38:58;100111.81;;;9.34;100.00
59443;BME280;45247;47.466;19.004;2024-03-17T01:41:25;100117.97;;;9.33;100.00
59443;BME280;45247;47.466;19.004;2024-03-17T01:43:51;100120.69;;;9.32;100.00
59443;BME280;45247;47.466;19.004;2024-03-17T01:46:18;100127.19;;;9.24;100.00
59443;BME280;45247;47.466;19.004;2024-03-17T01:48:44;100125.66;;;9.20;100.00
59443;BME280;45247;47.466;19.004;2024-03-17T01:51:15;100133.78;;;9.16;100.00
59443;BME280;45247;47.466;19.004;2024-03-17T01:53:42;100129.44;;;9.15;100.00
59443;BME280;45247;47.466;19.004;2024-03-17T01:56:10;100129.53;;;9.13;100.00
59443;BME280;45247;47.466;19.004;2024-03-17T01:58:37;100128.59;;;9.14;100.00
59443;BME280;45247;47.466;19.004;2024-03-17T02:01:04;100122.63;;;9.11;100.00
59443;BME280;45247;47.466;19.004;2024-03-17T02:03:30;100137.81;;;9.06;100.00
59443;BME280;45247;47.466;19.004;2024-03-17T02:05:58;100139.03;;;8.98;100.00
59443;BME280;45247;47.466;19.004;2024-03-17T02:08:25;100144.16;;;9.01;100.00
59443;BME280;45247;47.466;19.004;2024-03-17T02:10:53;100147.88;;;8.97;100.00
59443;BME280;45247;47.466;19.004;2024-03-17T02:13:20;100151.44;;;8.96;100.00
59443;BME280;45247;47.466;19.004;2024-03-17T02:15:47;100137.22;;;8.82;100.00
59443;BME280;45247;47.466;19.004;2024-03-17T02:18:13;100150.81;;;8.91;100.00
59443;BME280;45247;47.466;19.004;2024-03-17T02:20:40;100153.66;;;8.87;100.00
59443;BME280;45247;47.466;19.004;2024-03-17T02:23:26;100153.81;;;8.84;100.00
59443;BME280;45247;47.466;19.004;2024-03-17T02:25:53;100164.25;;;8.85;100.00
59443;BME280;45247;47.466;19.004;2024-03-17T02:28:19;100171.91;;;8.90;100.00
59443;BME280;45247;47.466;19.004;2024-03-17T02:30:46;100167.69;;;8.87;100.00
59443;BME280;45247;47.466;19.004;2024-03-17T02:33:12;100166.75;;;8.88;100.00
59443;BME280;45247;47.466;19.004;2024-03-17T02:35:39;100165.81;;;8.89;100.00
59443;BME280;45247;47.466;19.004;2024-03-17T02:38:06;100173.00;;;8.86;100.00
59443;BME280;45247;47.466;19.004;2024-03-17T02:40:36;100187.22;;;8.82;100.00
59443;BME280;45247;47.466;19.004;2024-03-17T02:43:02;100177.72;;;8.79;100.00
59443;BME280;45247;47.466;19.004;2024-03-17T02:45:29;100163.13;;;8.72;100.00
59443;BME280;45247;47.466;19.004;2024-03-17T02:47:56;100172.47;;;8.79;100.00
59443;BME280;45247;47.466;19.004;2024-03-17T02:50:23;100175.09;;;8.79;100.00
59443;BME280;45247;47.466;19.004;2024-03-17T02:52:50;100181.97;;;8.82;100.00
59443;BME280;45247;47.466;19.004;2024-03-17T02:55:17;100174.50;;;8.91;100.00
59443;BME280;45247;47.466;19.004;2024-03-17T02:57:46;100174.81;;;9.02;100.00
59443;BME280;45247;47.466;19.004;2024-03-17T03:00:13;100170.63;;;8.98;100.00
59443;BME280;45247;47.466;19.004;2024-03-17T03:02:41;100167.09;;;8.99;100.00
59443;BME280;45247;47.466;19.004;2024-03-17T03:05:08;100164.38;;;9.01;100.00
59443;BME280;45247;47.466;19.004;2024-03-17T03:07:36;100167.22;;;8.96;100.00
59443;BME280;45247;47.466;19.004;2024-03-17T03:10:04;100175.19;;;8.95;100.00
59443;BME280;45247;47.466;19.004;2024-03-17T03:12:31;100183.03;;;8.96;100.00
59443;BME280;45247;47.466;19.004;2024-03-17T03:14:59;100169.25;;;8.91;100.00
59443;BME280;45247;47.466;19.004;2024-03-17T03:17:26;100172.63;;;8.93;100.00
59443;BME280;45247;47.466;19.004;2024-03-17T03:19:54;100179.91;;;8.88;100.00
59443;BME280;45247;47.466;19.004;2024-03-17T03:22:21;100190.56;;;8.85;100.00
59443;BME280;45247;47.466;19.004;2024-03-17T03:24:51;100183.69;;;8.83;100.00
59443;BME280;45247;47.466;19.004;2024-03-17T03:27:18;100187.31;;;8.80;100.00
59443;BME280;45247;47.466;19.004;2024-03-17T03:29:45;100191.16;;;8.73;100.00
59443;BME280;45247;47.466;19.004;2024-03-17T03:32:14;100186.47;;;8.61;100.00
59443;BME280;45247;47.466;19.004;2024-03-17T03:34:40;100200.72;;;8.57;100.00
59443;BME280;45247;47.466;19.004;2024-03-17T03:37:07;100195.72;;;8.50;100.00
59443;BME280;45247;47.466;19.004;2024-03-17T03:39:35;100184.69;;;8.42;100.00
59443;BME280;45247;47.466;19.004;2024-03-17T03:42:02;100194.69;;;8.34;100.00
59443;BME280;45247;47.466;19.004;2024-03-17T03:44:29;100201.22;;;8.25;100.00
59443;BME280;45247;47.466;19.004;2024-03-17T03:46:56;100218.19;;;8.18;100.00
59443;BME280;45247;47.466;19.004;2024-03-17T03:49:26;100205.25;;;8.14;100.00
59443;BME280;45247;47.466;19.004;2024-03-17T03:51:54;100202.63;;;8.14;100.00
59443;BME280;45247;47.466;19.004;2024-03-17T03:54:21;100225.50;;;8.12;100.00
59443;BME280;45247;47.466;19.004;2024-03-17T03:56:50;100226.47;;;8.09;100.00
59443;BME280;45247;47.466;19.004;2024-03-17T03:59:17;100230.34;;;8.00;100.00
59443;BME280;45247;47.466;19.004;2024-03-17T04:01:44;100229.78;;;7.94;100.00
59443;BME280;45247;47.466;19.004;2024-03-17T04:04:11;100215.00;;;7.91;100.00
59443;BME280;45247;47.466;19.004;2024-03-17T04:06:39;100223.16;;;7.85;100.00
59443;BME280;45247;47.466;19.004;2024-03-17T04:09:07;100226.75;;;7.83;100.00
59443;BME280;45247;47.466;19.004;2024-03-17T04:11:34;100234.78;;;7.80;100.00
59443;BME280;45247;47.466;19.004;2024-03-17T04:14:02;100239.31;;;7.76;100.00
59443;BME280;45247;47.466;19.004;2024-03-17T04:16:30;100234.19;;;7.73;100.00
59443;BME280;45247;47.466;19.004;2024-03-17T04:18:58;100248.38;;;7.69;100.00
59443;BME280;45247;47.466;19.004;2024-03-17T04:21:25;100257.19;;;7.68;100.00
59443;BME280;45247;47.466;19.004;2024-03-17T04:23:53;100255.59;;;7.64;100.00
59443;BME280;45247;47.466;19.004;2024-03-17T04:26:20;100250.00;;;7.51;100.00
59443;BME280;45247;47.466;19.004;2024-03-17T04:28:47;100245.66;;;7.50;100.00
59443;BME280;45247;47.466;19.004;2024-03-17T04:31:14;100254.72;;;7.43;100.00
59443;BME280;45247;47.466;19.004;2024-03-17T04:33:41;100239.44;;;7.31;100.00
59443;BME280;45247;47.466;19.004;2024-03-17T04:36:08;100237.81;;;7.28;100.00
59443;BME280;45247;47.466;19.004;2024-03-17T04:38:36;100237.97;;;7.23;100.00
59443;BME280;45247;47.466;19.004;2024-03-17T04:41:04;100232.06;;;7.18;100.00
59443;BME280;45247;47.466;19.004;2024-03-17T04:43:33;100236.56;;;7.15;100.00
59443;BME280;45247;47.466;19.004;2024-03-17T04:46:02;100236.09;;;7.05;100.00
59443;BME280;45247;47.466;19.004;2024-03-17T04:48:30;100233.28;;;7.10;100.00
59443;BME280;45247;47.466;19.004;2024-03-17T04:50:57;100229.88;;;7.08;100.00
59443;BME280;45247;47.466;19.004;2024-03-17T04:53:25;100217.81;;;7.03;100.00
59443;BME280;45247;47.466;19.004;2024-03-17T04:56:01;100220.63;;;6.99;100.00
59443;BME280;45247;47.466;19.004;2024-03-17T04:58:32;100220.78;;;6.94;100.00
59443;BME280;45247;47.466;19.004;2024-03-17T05:01:04;100219.25;;;6.89;100.00
59443;BME280;45247;47.466;19.004;2024-03-17T05:03:32;100232.19;;;6.93;100.00
59443;BME280;45247;47.466;19.004;2024-03-17T05:05:59;100240.88;;;6.95;100.00
59443;BME280;45247;47.466;19.004;2024-03-17T05:08:30;100243.41;;;6.97;100.00
59443;BME280;45247;47.466;19.004;2024-03-17T05:10:58;100246.00;;;6.98;100.00
59443;BME280;45247;47.466;19.004;2024-03-17T05:13:25;100253.63;;;7.05;100.00
59443;BME280;45247;47.466;19.004;2024-03-17T05:15:54;100241.41;;;7.03;100.00
59443;BME280;45247;47.466;19.004;2024-03-17T05:18:21;100255.41;;;7.04;100.00
59443;BME280;45247;47.466;19.004;2024-03-17T05:21:01;100267.09;;;6.95;100.00
59443;BME280;45247;47.466;19.004;2024-03-17T05:23:30;100259.16;;;6.97;100.00
59443;BME280;45247;47.466;19.004;2024-03-17T05:25:58;100261.13;;;6.92;100.00
59443;BME280;45247;47.466;19.004;2024-03-17T05:28:26;100282.97;;;6.92;100.00
59443;BME280;45247;47.466;19.004;2024-03-17T05:30:55;100288.88;;;6.97;100.00
59443;BME280;45247;47.466;19.004;2024-03-17T05:33:24;100304.31;;;7.07;100.00
59443;BME280;45247;47.466;19.004;2024-03-17T05:35:53;100297.28;;;7.07;100.00
59443;BME280;45247;47.466;19.004;2024-03-17T05:38:21;100296.66;;;7.00;100.00
59443;BME280;45247;47.466;19.004;2024-03-17T05:40:54;100294.59;;;7.09;100.00
59443;BME280;45247;47.466;19.004;2024-03-17T05:43:21;100301.31;;;7.16;100.00
59443;BME280;45247;47.466;19.004;2024-03-17T05:45:49;100304.13;;;7.11;100.00
59443;BME280;45247;47.466;19.004;2024-03-17T05:48:18;100309.03;;;7.19;100.00
59443;BME280;45247;47.466;19.004;2024-03-17T05:50:45;100300.09;;;7.24;100.00
59443;BME280;45247;47.466;19.004;2024-03-17T05:53:13;100309.22;;;7.14;100.00
59443;BME280;45247;47.466;19.004;2024-03-17T05:55:40;100319.44;;;7.22;100.00
59443;BME280;45247;47.466;19.004;2024-03-17T05:58:08;100301.97;;;7.21;100.00
59443;BME280;45247;47.466;19.004;2024-03-17T06:00:36;100301.31;;;7.16;100.00
59443;BME280;45247;47.466;19.004;2024-03-17T06:03:03;100305.88;;;7.55;100.00
59443;BME280;45247;47.466;19.004;2024-03-17T06:05:33;100308.19;;;7.84;100.00
59443;BME280;45247;47.466;19.004;2024-03-17T06:08:01;100298.69;;;8.21;100.00
59443;BME280;45247;47.466;19.004;2024-03-17T06:10:30;100295.69;;;8.10;100.00
59443;BME280;45247;47.466;19.004;2024-03-17T06:12:58;100289.88;;;8.63;100.00
59443;BME280;45247;47.466;19.004;2024-03-17T06:15:26;100301.69;;;8.92;100.00
59443;BME280;45247;47.466;19.004;2024-03-17T06:17:53;100291.28;;;9.08;100.00
59443;BME280;45247;47.466;19.004;2024-03-17T06:20:22;100291.00;;;9.14;100.00
59443;BME280;45247;47.466;19.004;2024-03-17T06:22:51;100287.47;;;8.96;100.00
59443;BME280;45247;47.466;19.004;2024-03-17T06:25:18;100298.13;;;9.12;100.00
59443;BME280;45247;47.466;19.004;2024-03-17T06:27:45;100296.28;;;9.14;100.00
59443;BME280;45247;47.466;19.004;2024-03-17T06:30:13;100283.31;;;9.45;100.00
59443;BME280;45247;47.466;19.004;2024-03-17T06:32:40;100279.00;;;9.44;100.00
59443;BME280;45247;47.466;19.004;2024-03-17T06:35:08;100285.94;;;9.28;100.00
59443;BME280;45247;47.466;19.004;2024-03-17T06:37:35;100283.16;;;9.31;100.00
59443;BME280;45247;47.466;19.004;2024-03-17T06:40:05;100277.72;;;9.17;100.00
59443;BME280;45247;47.466;19.004;2024-03-17T06:42:32;100280.63;;;9.11;100.00
59443;BME280;45247;47.466;19.004;2024-03-17T06:44:59;100285.38;;;9.02;100.00
59443;BME280;45247;47.466;19.004;2024-03-17T06:47:26;100303.75;;;8.85;100.00
59443;BME280;45247;47.466;19.004;2024-03-17T06:49:53;100314.34;;;9.02;97.34
59443;BME280;45247;47.466;19.004;2024-03-17T06:52:21;100307.94;;;8.89;96.99
59443;BME280;45247;47.466;19.004;2024-03-17T06:54:48;100316.13;;;9.02;97.62
59443;BME280;45247;47.466;19.004;2024-03-17T06:57:18;100305.81;;;8.97;93.42
59443;BME280;45247;47.466;19.004;2024-03-17T06:59:45;100304.97;;;8.97;93.83
59443;BME280;45247;47.466;19.004;2024-03-17T07:02:14;100310.78;;;9.03;95.21
59443;BME280;45247;47.466;19.004;2024-03-17T07:04:43;100304.72;;;9.20;94.18
59443;BME280;45247;47.466;19.004;2024-03-17T07:07:10;100299.94;;;9.28;88.14
59443;BME280;45247;47.466;19.004;2024-03-17T07:09:39;100313.06;;;9.30;89.91
59443;BME280;45247;47.466;19.004;2024-03-17T07:12:06;100307.63;;;9.33;88.60
59443;BME280;45247;47.466;19.004;2024-03-17T07:14:35;100325.03;;;9.18;92.39
59443;BME280;45247;47.466;19.004;2024-03-17T07:17:03;100331.19;;;9.36;87.50
59443;BME280;45247;47.466;19.004;2024-03-17T07:19:31;100319.44;;;9.24;88.63
59443;BME280;45247;47.466;19.004;2024-03-17T07:22:04;100305.25;;;9.10;90.33
59443;BME280;45247;47.466;19.004;2024-03-17T07:24:34;100312.78;;;8.98;93.75
59443;BME280;45247;47.466;19.004;2024-03-17T07:27:01;100323.19;;;9.01;91.87
59443;BME280;45247;47.466;19.004;2024-03-17T07:29:29;100329.00;;;9.27;88.54
59443;BME280;45247;47.466;19.004;2024-03-17T07:31:57;100330.75;;;9.45;87.35
59443;BME280;45247;47.466;19.004;2024-03-17T07:34:24;100314.13;;;9.26;88.90
59443;BME280;45247;47.466;19.004;2024-03-17T07:36:51;100317.63;;;9.26;90.21
59443;BME280;45247;47.466;19.004;2024-03-17T07:39:18;100327.75;;;9.17;86.87
59443;BME280;45247;47.466;19.004;2024-03-17T07:41:45;100343.38;;;9.20;87.90
59443;BME280;45247;47.466;19.004;2024-03-17T07:44:12;100331.28;;;9.16;82.03
59443;BME280;45247;47.466;19.004;2024-03-17T07:46:39;100337.09;;;9.03;86.88
59443;BME280;45247;47.466;19.004;2024-03-17T07:49:08;100335.25;;;9.24;82.20
59443;BME280;45247;47.466;19.004;2024-03-17T07:51:35;100347.63;;;9.41;84.18
59443;BME280;45247;47.466;19.004;2024-03-17T07:54:02;100336.47;;;9.36;79.27
59443;BME280;45247;47.466;19.004;2024-03-17T07:56:29;100326.31;;;9.46;76.80
59443;BME280;45247;47.466;19.004;2024-03-17T07:58:56;100327.38;;;9.61;75.87
59443;BME280;45247;47.466;19.004;2024-03-17T08:01:24;100330.41;;;9.70;78.21
59443;BME280;45247;47.466;19.004;2024-03-17T08:03:51;100342.28;;;9.79;73.51
59443;BME280;45247;47.466;19.004;2024-03-17T08:06:22;100340.94;;;10.07;73.72
59443;BME280;45247;47.466;19.004;2024-03-17T08:08:50;100349.47;;;10.12;73.83
59443;BME280;45247;47.466;19.004;2024-03-17T08:11:17;100363.06;;;9.68;73.64
59443;BME280;45247;47.466;19.004;2024-03-17T08:13:44;100343.25;;;9.59;73.51
59443;BME280;45247;47.466;19.004;2024-03-17T08:16:12;100343.66;;;9.51;72.54
59443;BME280;45247;47.466;19.004;2024-03-17T08:18:41;100369.19;;;9.68;70.29
59443;BME280;45247;47.466;19.004;2024-03-17T08:21:08;100369.66;;;9.76;69.65
59443;BME280;45247;47.466;19.004;2024-03-17T08:23:37;100357.13;;;9.82;72.01
59443;BME280;45247;47.466;19.004;2024-03-17T08:26:07;100370.81;;;9.88;67.64
59443;BME280;45247;47.466;19.004;2024-03-17T08:28:35;100372.16;;;9.97;68.62
59443;BME280;45247;47.466;19.004;2024-03-17T08:31:03;100366.66;;;10.19;69.26
59443;BME280;45247;47.466;19.004;2024-03-17T08:33:31;100360.31;;;10.23;66.15
59443;BME280;45247;47.466;19.004;2024-03-17T08:36:00;100373.00;;;10.15;68.76
59443;BME280;45247;47.466;19.004;2024-03-17T08:38:28;100363.75;;;10.42;66.00
59443;BME280;45247;47.466;19.004;2024-03-17T08:40:57;100375.00;;;10.46;65.54
59443;BME280;45247;47.466;19.004;2024-03-17T08:43:25;100375.41;;;10.02;65.97
59443;BME280;45247;47.466;19.004;2024-03-17T08:45:55;100369.03;;;10.25;63.67
59443;BME280;45247;47.466;19.004;2024-03-17T08:48:24;100378.84;;;10.04;62.89
59443;BME280;45247;47.466;19.004;2024-03-17T08:50:52;100390.06;;;9.90;63.21
59443;BME280;45247;47.466;19.004;2024-03-17T08:53:19;100403.41;;;9.87;62.16
59443;BME280;45247;47.466;19.004;2024-03-17T08:55:46;100378.13;;;9.83;61.06
59443;BME280;45247;47.466;19.004;2024-03-17T08:58:15;100364.94;;;9.47;63.35
59443;BME280;45247;47.466;19.004;2024-03-17T09:00:42;100360.47;;;9.85;63.12
59443;BME280;45247;47.466;19.004;2024-03-17T09:03:09;100370.84;;;10.06;60.21
59443;BME280;45247;47.466;19.004;2024-03-17T09:05:37;100363.59;;;10.11;63.05
59443;BME280;45247;47.466;19.004;2024-03-17T09:08:06;100377.66;;;10.28;61.71
59443;BME280;45247;47.466;19.004;2024-03-17T09:10:39;100359.66;;;10.37;60.78
59443;BME280;45247;47.466;19.004;2024-03-17T09:13:06;100368.81;;;10.30;59.12
59443;BME280;45247;47.466;19.004;2024-03-17T09:15:34;100382.19;;;10.08;59.09
59443;BME280;45247;47.466;19.004;2024-03-17T09:18:02;100372.34;;;10.11;59.11
59443;BME280;45247;47.466;19.004;2024-03-17T09:20:29;100379.34;;;10.30;59.65
59443;BME280;45247;47.466;19.004;2024-03-17T09:22:57;100384.47;;;10.33;59.37
59443;BME280;45247;47.466;19.004;2024-03-17T09:25:24;100381.41;;;10.58;55.77
59443;BME280;45247;47.466;19.004;2024-03-17T09:27:51;100374.03;;;10.64;54.42
59443;BME280;45247;47.466;19.004;2024-03-17T09:30:18;100378.94;;;10.55;57.37
59443;BME280;45247;47.466;19.004;2024-03-17T09:32:47;100370.06;;;10.73;57.91
59443;BME280;45247;47.466;19.004;2024-03-17T09:35:14;100377.00;;;10.91;57.91
59443;BME280;45247;47.466;19.004;2024-03-17T09:37:41;100359.00;;;10.66;57.63
59443;BME280;45247;47.466;19.004;2024-03-17T09:40:13;100359.91;;;10.65;56.84
59443;BME280;45247;47.466;19.004;2024-03-17T09:42:41;100364.53;;;10.77;58.38
59443;BME280;45247;47.466;19.004;2024-03-17T09:45:10;100359.31;;;10.93;57.03
59443;BME280;45247;47.466;19.004;2024-03-17T09:47:37;100362.13;;;11.06;57.32
59443;BME280;45247;47.466;19.004;2024-03-17T09:50:13;100361.03;;;11.10;56.42
59443;BME280;45247;47.466;19.004;2024-03-17T09:52:44;100363.84;;;11.23;56.31
59443;BME280;45247;47.466;19.004;2024-03-17T09:55:15;100353.00;;;11.12;56.08
59443;BME280;45247;47.466;19.004;2024-03-17T09:57:43;100356.91;;;10.89;54.61
59443;BME280;45247;47.466;19.004;2024-03-17T10:00:14;100363.34;;;10.83;55.26
59443;BME280;45247;47.466;19.004;2024-03-17T10:02:42;100379.09;;;11.02;54.88
59443;BME280;45247;47.466;19.004;2024-03-17T10:05:23;100361.00;;;10.94;51.98
59443;BME280;45247;47.466;19.004;2024-03-17T10:07:51;100321.69;;;10.72;51.29
59443;BME280;45247;47.466;19.004;2024-03-17T10:10:20;100347.94;;;10.91;51.59
59443;BME280;45247;47.466;19.004;2024-03-17T10:12:49;100338.63;;;11.01;50.94
59443;BME280;45247;47.466;19.004;2024-03-17T10:15:18;100337.38;;;10.75;51.63
59443;BME280;45247;47.466;19.004;2024-03-17T10:17:46;100346.16;;;10.76;51.65
59443;BME280;45247;47.466;19.004;2024-03-17T10:20:17;100336.75;;;10.70;52.09
59443;BME280;45247;47.466;19.004;2024-03-17T10:23:01;100342.41;;;10.80;51.98
59443;BME280;45247;47.466;19.004;2024-03-17T10:25:30;100339.97;;;10.60;51.59
59443;BME280;45247;47.466;19.004;2024-03-17T10:27:58;100336.09;;;10.67;52.84
59443;BME280;45247;47.466;19.004;2024-03-17T10:30:25;100330.31;;;10.76;55.12
59443;BME280;45247;47.466;19.004;2024-03-17T10:32:55;100320.50;;;10.78;54.55
59443;BME280;45247;47.466;19.004;2024-03-17T10:35:33;100310.16;;;11.07;53.95
59443;BME280;45247;47.466;19.004;2024-03-17T10:38:05;100319.25;;;11.17;53.30
59443;BME280;45247;47.466;19.004;2024-03-17T10:40:33;100313.78;;;11.51;50.33
59443;BME280;45247;47.466;19.004;2024-03-17T10:43:02;100311.75;;;11.57;50.01
59443;BME280;45247;47.466;19.004;2024-03-17T10:45:29;100314.13;;;11.61;52.62
59443;BME280;45247;47.466;19.004;2024-03-17T10:48:07;100321.41;;;11.26;53.49
59443;BME280;45247;47.466;19.004;2024-03-17T10:50:36;100328.16;;;11.32;52.96
59443;BME280;45247;47.466;19.004;2024-03-17T10:53:07;100320.81;;;11.52;50.63
59443;BME280;45247;47.466;19.004;2024-03-17T10:55:42;100328.81;;;11.51;50.05
59443;BME280;45247;47.466;19.004;2024-03-17T10:58:18;100322.13;;;11.60;49.69
59443;BME280;45247;47.466;19.004;2024-03-17T11:00:48;100312.09;;;11.50;49.49
59443;BME280;45247;47.466;19.004;2024-03-17T11:03:18;100308.53;;;11.36;49.42
59443;BME280;45247;47.466;19.004;2024-03-17T11:05:48;100301.03;;;11.28;49.32
59443;BME280;45247;47.466;19.004;2024-03-17T11:08:18;100301.88;;;11.44;49.83
59443;BME280;45247;47.466;19.004;2024-03-17T11:10:50;100298.44;;;11.58;51.23
59443;BME280;45247;47.466;19.004;2024-03-17T11:13:25;100272.56;;;11.33;49.93
59443;BME280;45247;47.466;19.004;2024-03-17T11:15:53;100278.84;;;11.46;50.39
59443;BME280;45247;47.466;19.004;2024-03-17T11:18:42;100273.63;;;11.61;50.54
59443;BME280;45247;47.466;19.004;2024-03-17T11:21:22;100260.63;;;11.42;51.90
59443;BME280;45247;47.466;19.004;2024-03-17T11:23:57;100265.81;;;11.43;50.32
59443;BME280;45247;47.466;19.004;2024-03-17T11:26:33;100245.31;;;11.17;50.15
59443;BME280;45247;47.466;19.004;2024-03-17T11:29:01;100268.09;;;11.49;50.42
59443;BME280;45247;47.466;19.004;2024-03-17T11:31:37;100273.38;;;11.65;49.54
59443;BME280;45247;47.466;19.004;2024-03-17T11:36:50;100272.72;;;11.30;46.55
59443;BME280;45247;47.466;19.004;2024-03-17T11:39:21;100265.31;;;11.37;48.63
59443;BME280;45247;47.466;19.004;2024-03-17T11:42:12;100266.25;;;11.36;49.74
59443;BME280;45247;47.466;19.004;2024-03-17T11:44:42;100265.16;;;11.70;49.46
59443;BME280;45247;47.466;19.004;2024-03-17T11:47:08;100270.34;;;11.71;50.30
59443;BME280;45247;47.466;19.004;2024-03-17T11:49:38;100283.88;;;11.97;50.02
59443;BME280;45247;47.466;19.004;2024-03-17T11:52:08;100253.75;;;11.69;52.22
59443;BME280;45247;47.466;19.004;2024-03-17T11:54:39;100253.50;;;11.58;50.21
59443;BME280;45247;47.466;19.004;2024-03-17T11:57:08;100254.94;;;11.64;50.21
59443;BME280;45247;47.466;19.004;2024-03-17T11:59:36;100265.66;;;11.76;50.12
59443;BME280;45247;47.466;19.004;2024-03-17T12:02:09;100275.94;;;11.81;47.80
59443;BME280;45247;47.466;19.004;2024-03-17T12:04:39;100276.44;;;11.58;47.58
59443;BME280;45247;47.466;19.004;2024-03-17T12:07:12;100269.28;;;11.60;48.15
59443;BME280;45247;47.466;19.004;2024-03-17T12:09:41;100267.28;;;11.79;48.56
59443;BME280;45247;47.466;19.004;2024-03-17T12:12:09;100260.28;;;11.78;48.56
59443;BME280;45247;47.466;19.004;2024-03-17T12:14:36;100243.22;;;11.38;45.66
59443;BME280;45247;47.466;19.004;2024-03-17T12:17:04;100265.16;;;11.70;46.27
59443;BME280;45247;47.466;19.004;2024-03-17T12:19:31;100246.47;;;11.73;47.03
59443;BME280;45247;47.466;19.004;2024-03-17T12:21:59;100270.63;;;11.67;46.60
59443;BME280;45247;47.466;19.004;2024-03-17T12:24:27;100269.78;;;11.66;46.89
59443;BME280;45247;47.466;19.004;2024-03-17T12:26:57;100264.50;;;11.66;47.01
59443;BME280;45247;47.466;19.004;2024-03-17T12:29:27;100275.34;;;11.62;44.60
59443;BME280;45247;47.466;19.004;2024-03-17T12:31:56;100257.88;;;11.43;43.73
59443;BME280;45247;47.466;19.004;2024-03-17T12:34:25;100278.53;;;11.37;45.61
59443;BME280;45247;47.466;19.004;2024-03-17T12:36:54;100272.69;;;11.62;44.03
59443;BME280;45247;47.466;19.004;2024-03-17T12:39:22;100277.06;;;11.47;44.82
59443;BME280;45247;47.466;19.004;2024-03-17T12:42:04;100263.56;;;11.82;45.36
59443;BME280;45247;47.466;19.004;2024-03-17T12:44:31;100254.88;;;11.95;45.81
59443;BME280;45247;47.466;19.004;2024-03-17T12:47:00;100271.50;;;12.12;45.57
59443;BME280;45247;47.466;19.004;2024-03-17T12:49:27;100285.13;;;12.20;44.02